createdAt,value
2022-08-31T00:09:06.269Z,89.76
2022-08-31T00:24:06.270Z,94.78
2022-08-31T00:39:06.181Z,98.95
2022-08-31T00:54:06.469Z,100.00
2022-08-31T01:09:06.363Z,100.00
2022-08-31T01:24:06.529Z,100.00
2022-08-31T01:39:06.333Z,100.00
2022-08-31T01:54:06.477Z,100.00
2022-08-31T02:09:06.477Z,100.00
2022-08-31T02:24:06.425Z,100.00
2022-08-31T02:39:06.545Z,100.00
2022-08-31T02:54:06.569Z,100.00
2022-08-31T03:09:06.716Z,100.00
2022-08-31T03:24:06.703Z,100.00
2022-08-31T03:39:06.670Z,100.00
2022-08-31T03:54:06.707Z,100.00
2022-08-31T04:09:06.791Z,100.00
2022-08-31T04:24:06.839Z,100.00
2022-08-31T04:39:06.876Z,100.00
2022-08-31T04:54:06.911Z,100.00
2022-08-31T05:09:06.971Z,100.00
2022-08-31T05:24:07.053Z,100.00
2022-08-31T05:39:07.024Z,100.00
2022-08-31T05:54:07.068Z,100.00
2022-08-31T06:09:07.108Z,100.00
2022-08-31T06:24:07.151Z,100.00
2022-08-31T06:39:07.151Z,100.00
2022-08-31T06:54:27.629Z,100.00
2022-08-31T07:09:07.160Z,100.00
2022-08-31T07:24:07.224Z,100.00
2022-08-31T07:39:07.213Z,100.00
2022-08-31T07:54:07.370Z,100.00
2022-08-31T08:09:23.983Z,100.00
2022-08-31T08:24:07.449Z,100.00
2022-08-31T08:39:07.647Z,100.00
2022-08-31T08:54:07.480Z,97.92
2022-08-31T09:09:07.403Z,94.64
2022-08-31T09:24:07.708Z,86.71
2022-08-31T09:39:07.771Z,85.18
2022-08-31T09:54:08.004Z,83.17
2022-08-31T10:09:07.713Z,77.30
2022-08-31T10:24:07.670Z,70.12
2022-08-31T10:39:07.778Z,72.61
2022-08-31T10:54:07.782Z,68.75
2022-08-31T11:09:07.809Z,66.34
2022-08-31T11:24:07.894Z,63.44
2022-08-31T11:39:07.878Z,63.61
2022-08-31T11:54:07.896Z,62.15
2022-08-31T12:09:07.959Z,59.32
2022-08-31T12:24:08.020Z,60.51
2022-08-31T12:39:08.136Z,58.14
2022-08-31T12:54:08.120Z,58.18
2022-08-31T13:09:08.128Z,58.45
2022-08-31T13:24:08.116Z,56.15
2022-08-31T13:39:08.153Z,56.23
2022-08-31T13:54:08.243Z,55.75
2022-08-31T14:09:08.350Z,55.96
2022-08-31T14:24:08.364Z,54.02
2022-08-31T14:39:08.310Z,52.52
2022-08-31T14:54:08.544Z,51.60
2022-08-31T15:09:08.360Z,48.99
2022-08-31T15:24:08.501Z,48.76
2022-08-31T15:39:08.620Z,47.95
2022-08-31T15:54:21.713Z,46.69
2022-08-31T16:09:08.615Z,47.07
2022-08-31T16:24:08.755Z,48.18
2022-08-31T16:39:08.749Z,47.65
2022-08-31T16:54:08.660Z,47.76
2022-08-31T17:09:08.729Z,49.91
2022-08-31T17:24:11.405Z,50.42
2022-08-31T17:39:08.833Z,50.20
2022-08-31T17:54:08.804Z,51.91
2022-08-31T18:09:08.895Z,51.45
2022-08-31T18:24:08.936Z,52.61
2022-08-31T18:39:08.933Z,52.16
2022-08-31T18:54:09.036Z,51.86
2022-08-31T19:09:09.248Z,51.29
2022-08-31T19:24:10.044Z,50.59
2022-08-31T19:39:10.807Z,50.36
2022-08-31T19:54:09.289Z,50.37
2022-08-31T20:09:09.289Z,50.73
2022-08-31T20:24:09.166Z,50.43
2022-08-31T20:39:09.247Z,50.31
2022-08-31T20:54:09.417Z,50.75
2022-08-31T21:09:09.581Z,50.22
2022-08-31T21:24:09.601Z,50.81
2022-08-31T21:39:09.500Z,50.65
2022-08-31T21:54:10.720Z,50.71
2022-08-31T22:09:09.536Z,51.30
2022-08-31T22:24:09.633Z,51.57
2022-08-31T22:39:09.483Z,51.76
2022-08-31T22:54:09.466Z,52.22
2022-08-31T23:09:09.486Z,52.41
2022-08-31T23:24:09.753Z,52.70
2022-08-31T23:39:09.588Z,53.76
2022-08-31T23:54:09.599Z,53.66
